sensor_id;sensor_type;location;lat;lon;timestamp;temperature;humidity
3628;DHT22;1830;49.000;12.074;2022-07-06T00:00:01;19.40;85.00
3628;DHT22;1830;49.000;12.074;2022-07-06T00:02:28;19.30;85.30
3628;DHT22;1830;49.000;12.074;2022-07-06T00:04:55;19.30;85.80
3628;DHT22;1830;49.000;12.074;2022-07-06T00:07:23;19.30;86.00
3628;DHT22;1830;49.000;12.074;2022-07-06T00:09:50;19.30;85.90
3628;DHT22;1830;49.000;12.074;2022-07-06T00:12:18;19.20;86.00
3628;DHT22;1830;49.000;12.074;2022-07-06T00:14:45;19.10;86.40
3628;DHT22;1830;49.000;12.074;2022-07-06T00:17:12;19.10;86.80
3628;DHT22;1830;49.000;12.074;2022-07-06T00:19:39;19.20;86.40
3628;DHT22;1830;49.000;12.074;2022-07-06T00:22:06;19.10;86.50
3628;DHT22;1830;49.000;12.074;2022-07-06T00:24:32;19.10;86.20
3628;DHT22;1830;49.000;12.074;2022-07-06T00:26:59;19.10;85.50
3628;DHT22;1830;49.000;12.074;2022-07-06T00:29:27;19.10;85.00
3628;DHT22;1830;49.000;12.074;2022-07-06T00:31:55;19.10;85.00
3628;DHT22;1830;49.000;12.074;2022-07-06T00:34:22;19.10;85.30
3628;DHT22;1830;49.000;12.074;2022-07-06T00:36:49;19.00;85.20
3628;DHT22;1830;49.000;12.074;2022-07-06T00:39:16;19.00;85.50
3628;DHT22;1830;49.000;12.074;2022-07-06T00:41:44;19.00;84.60
3628;DHT22;1830;49.000;12.074;2022-07-06T00:44:11;19.00;84.80
3628;DHT22;1830;49.000;12.074;2022-07-06T00:46:39;18.90;84.70
3628;DHT22;1830;49.000;12.074;2022-07-06T00:49:06;18.90;84.50
3628;DHT22;1830;49.000;12.074;2022-07-06T00:51:53;18.90;84.70
3628;DHT22;1830;49.000;12.074;2022-07-06T00:54:19;18.90;84.70
3628;DHT22;1830;49.000;12.074;2022-07-06T00:56:46;18.90;85.00
3628;DHT22;1830;49.000;12.074;2022-07-06T00:59:13;18.90;85.00
3628;DHT22;1830;49.000;12.074;2022-07-06T01:01:42;18.90;84.30
3628;DHT22;1830;49.000;12.074;2022-07-06T01:04:08;18.90;84.80
3628;DHT22;1830;49.000;12.074;2022-07-06T01:06:35;18.90;84.40
3628;DHT22;1830;49.000;12.074;2022-07-06T01:09:04;18.90;84.20
3628;DHT22;1830;49.000;12.074;2022-07-06T01:11:31;18.90;84.00
3628;DHT22;1830;49.000;12.074;2022-07-06T01:14:00;18.90;84.00
3628;DHT22;1830;49.000;12.074;2022-07-06T01:16:27;18.90;84.10
3628;DHT22;1830;49.000;12.074;2022-07-06T01:18:55;19.00;84.20
3628;DHT22;1830;49.000;12.074;2022-07-06T01:21:23;18.90;83.90
3628;DHT22;1830;49.000;12.074;2022-07-06T01:23:50;18.90;84.00
3628;DHT22;1830;49.000;12.074;2022-07-06T01:26:19;18.90;83.70
3628;DHT22;1830;49.000;12.074;2022-07-06T01:28:47;18.90;84.00
3628;DHT22;1830;49.000;12.074;2022-07-06T01:31:15;18.90;84.20
3628;DHT22;1830;49.000;12.074;2022-07-06T01:33:44;18.80;84.40
3628;DHT22;1830;49.000;12.074;2022-07-06T01:36:11;18.80;84.90
3628;DHT22;1830;49.000;12.074;2022-07-06T01:38:50;18.80;85.20
3628;DHT22;1830;49.000;12.074;2022-07-06T01:41:17;18.80;85.40
3628;DHT22;1830;49.000;12.074;2022-07-06T01:43:45;18.80;85.70
3628;DHT22;1830;49.000;12.074;2022-07-06T01:46:12;18.80;85.60
3628;DHT22;1830;49.000;12.074;2022-07-06T01:48:40;18.80;86.40
3628;DHT22;1830;49.000;12.074;2022-07-06T01:51:07;18.70;86.10
3628;DHT22;1830;49.000;12.074;2022-07-06T01:53:34;18.70;86.10
3628;DHT22;1830;49.000;12.074;2022-07-06T01:56:03;18.60;86.20
3628;DHT22;1830;49.000;12.074;2022-07-06T01:58:30;18.70;87.50
3628;DHT22;1830;49.000;12.074;2022-07-06T02:00:57;18.60;87.50
3628;DHT22;1830;49.000;12.074;2022-07-06T02:03:23;18.60;87.50
3628;DHT22;1830;49.000;12.074;2022-07-06T02:05:50;18.50;88.00
3628;DHT22;1830;49.000;12.074;2022-07-06T02:08:17;18.50;88.00
3628;DHT22;1830;49.000;12.074;2022-07-06T02:10:44;18.40;88.10
3628;DHT22;1830;49.000;12.074;2022-07-06T02:13:13;18.40;88.30
3628;DHT22;1830;49.000;12.074;2022-07-06T02:15:39;18.40;88.80
3628;DHT22;1830;49.000;12.074;2022-07-06T02:18:06;18.30;88.80
3628;DHT22;1830;49.000;12.074;2022-07-06T02:20:33;18.30;89.10
3628;DHT22;1830;49.000;12.074;2022-07-06T02:23:00;18.30;89.10
3628;DHT22;1830;49.000;12.074;2022-07-06T02:25:27;18.30;89.20
3628;DHT22;1830;49.000;12.074;2022-07-06T02:27:53;18.10;89.00
3628;DHT22;1830;49.000;12.074;2022-07-06T02:30:22;18.20;89.90
3628;DHT22;1830;49.000;12.074;2022-07-06T02:32:48;18.10;90.30
3628;DHT22;1830;49.000;12.074;2022-07-06T02:35:15;18.10;90.20
3628;DHT22;1830;49.000;12.074;2022-07-06T02:37:42;18.10;90.30
3628;DHT22;1830;49.000;12.074;2022-07-06T02:40:10;18.10;90.70
3628;DHT22;1830;49.000;12.074;2022-07-06T02:42:37;18.00;90.80
3628;DHT22;1830;49.000;12.074;2022-07-06T02:45:05;18.00;90.90
3628;DHT22;1830;49.000;12.074;2022-07-06T02:47:33;17.90;91.00
3628;DHT22;1830;49.000;12.074;2022-07-06T02:50:00;17.90;91.20
3628;DHT22;1830;49.000;12.074;2022-07-06T02:52:27;17.90;91.20
3628;DHT22;1830;49.000;12.074;2022-07-06T02:54:53;17.80;91.20
3628;DHT22;1830;49.000;12.074;2022-07-06T02:57:20;17.80;91.50
3628;DHT22;1830;49.000;12.074;2022-07-06T02:59:47;17.80;91.60
3628;DHT22;1830;49.000;12.074;2022-07-06T03:02:15;17.70;91.60
3628;DHT22;1830;49.000;12.074;2022-07-06T03:04:43;17.70;92.00
3628;DHT22;1830;49.000;12.074;2022-07-06T03:07:10;17.60;91.90
3628;DHT22;1830;49.000;12.074;2022-07-06T03:09:37;17.60;92.10
3628;DHT22;1830;49.000;12.074;2022-07-06T03:12:04;17.60;92.10
3628;DHT22;1830;49.000;12.074;2022-07-06T03:14:31;17.50;92.20
3628;DHT22;1830;49.000;12.074;2022-07-06T03:16:58;17.50;92.40
3628;DHT22;1830;49.000;12.074;2022-07-06T03:19:25;17.50;92.50
3628;DHT22;1830;49.000;12.074;2022-07-06T03:21:53;17.40;92.60
3628;DHT22;1830;49.000;12.074;2022-07-06T03:24:20;17.40;92.50
3628;DHT22;1830;49.000;12.074;2022-07-06T03:26:47;17.30;92.50
3628;DHT22;1830;49.000;12.074;2022-07-06T03:29:14;17.30;92.50
3628;DHT22;1830;49.000;12.074;2022-07-06T03:31:40;17.20;92.80
3628;DHT22;1830;49.000;12.074;2022-07-06T03:34:07;17.20;92.90
3628;DHT22;1830;49.000;12.074;2022-07-06T03:36:34;17.20;92.80
3628;DHT22;1830;49.000;12.074;2022-07-06T03:39:02;17.20;93.00
3628;DHT22;1830;49.000;12.074;2022-07-06T03:41:29;17.20;93.00
3628;DHT22;1830;49.000;12.074;2022-07-06T03:43:56;17.20;93.00
3628;DHT22;1830;49.000;12.074;2022-07-06T03:46:23;17.30;93.10
3628;DHT22;1830;49.000;12.074;2022-07-06T03:48:50;17.30;93.10
3628;DHT22;1830;49.000;12.074;2022-07-06T03:51:17;17.30;93.20
3628;DHT22;1830;49.000;12.074;2022-07-06T03:53:44;17.20;93.10
3628;DHT22;1830;49.000;12.074;2022-07-06T03:56:12;17.20;93.20
3628;DHT22;1830;49.000;12.074;2022-07-06T03:58:59;17.20;93.10
3628;DHT22;1830;49.000;12.074;2022-07-06T04:01:31;17.30;93.30
3628;DHT22;1830;49.000;12.074;2022-07-06T04:03:58;17.40;93.40
3628;DHT22;1830;49.000;12.074;2022-07-06T04:06:25;17.30;93.30
3628;DHT22;1830;49.000;12.074;2022-07-06T04:08:52;17.30;93.30
3628;DHT22;1830;49.000;12.074;2022-07-06T04:11:20;17.30;93.30
3628;DHT22;1830;49.000;12.074;2022-07-06T04:13:47;17.30;93.60
3628;DHT22;1830;49.000;12.074;2022-07-06T04:16:14;17.40;93.70
3628;DHT22;1830;49.000;12.074;2022-07-06T04:18:41;17.50;93.90
3628;DHT22;1830;49.000;12.074;2022-07-06T04:21:08;17.50;94.00
3628;DHT22;1830;49.000;12.074;2022-07-06T04:23:35;17.50;94.10
3628;DHT22;1830;49.000;12.074;2022-07-06T04:26:02;17.40;94.20
3628;DHT22;1830;49.000;12.074;2022-07-06T04:28:30;17.50;94.20
3628;DHT22;1830;49.000;12.074;2022-07-06T04:30:57;17.60;94.40
3628;DHT22;1830;49.000;12.074;2022-07-06T04:33:24;17.50;94.20
3628;DHT22;1830;49.000;12.074;2022-07-06T04:35:51;17.60;94.50
3628;DHT22;1830;49.000;12.074;2022-07-06T04:38:18;17.60;94.50
3628;DHT22;1830;49.000;12.074;2022-07-06T04:40:45;17.50;94.40
3628;DHT22;1830;49.000;12.074;2022-07-06T04:43:12;17.50;94.60
3628;DHT22;1830;49.000;12.074;2022-07-06T04:45:41;17.40;94.60
3628;DHT22;1830;49.000;12.074;2022-07-06T04:48:07;17.50;94.70
3628;DHT22;1830;49.000;12.074;2022-07-06T04:50:36;17.40;94.80
3628;DHT22;1830;49.000;12.074;2022-07-06T04:53:05;17.50;94.80
3628;DHT22;1830;49.000;12.074;2022-07-06T04:55:32;17.40;95.00
3628;DHT22;1830;49.000;12.074;2022-07-06T04:57:59;17.40;95.10
3628;DHT22;1830;49.000;12.074;2022-07-06T05:00:26;17.50;95.40
3628;DHT22;1830;49.000;12.074;2022-07-06T05:02:55;17.50;95.30
3628;DHT22;1830;49.000;12.074;2022-07-06T05:05:27;17.50;95.20
3628;DHT22;1830;49.000;12.074;2022-07-06T05:07:54;17.50;95.20
3628;DHT22;1830;49.000;12.074;2022-07-06T05:10:22;17.60;95.30
3628;DHT22;1830;49.000;12.074;2022-07-06T05:12:49;17.60;95.40
3628;DHT22;1830;49.000;12.074;2022-07-06T05:15:15;17.60;95.60
3628;DHT22;1830;49.000;12.074;2022-07-06T05:17:42;17.50;95.20
3628;DHT22;1830;49.000;12.074;2022-07-06T05:20:11;17.60;95.20
3628;DHT22;1830;49.000;12.074;2022-07-06T05:22:38;17.60;95.10
3628;DHT22;1830;49.000;12.074;2022-07-06T05:25:05;17.60;95.00
3628;DHT22;1830;49.000;12.074;2022-07-06T05:27:32;17.50;95.10
3628;DHT22;1830;49.000;12.074;2022-07-06T05:29:59;17.50;95.20
3628;DHT22;1830;49.000;12.074;2022-07-06T05:32:26;17.60;95.30
3628;DHT22;1830;49.000;12.074;2022-07-06T05:34:53;17.70;95.30
3628;DHT22;1830;49.000;12.074;2022-07-06T05:37:21;17.70;95.10
3628;DHT22;1830;49.000;12.074;2022-07-06T05:39:48;17.80;94.80
3628;DHT22;1830;49.000;12.074;2022-07-06T05:42:16;17.80;94.80
3628;DHT22;1830;49.000;12.074;2022-07-06T05:44:43;17.90;95.00
3628;DHT22;1830;49.000;12.074;2022-07-06T05:47:10;18.00;94.80
3628;DHT22;1830;49.000;12.074;2022-07-06T05:50:09;18.00;94.60
3628;DHT22;1830;49.000;12.074;2022-07-06T05:52:40;18.10;94.40
3628;DHT22;1830;49.000;12.074;2022-07-06T05:55:08;18.10;94.60
3628;DHT22;1830;49.000;12.074;2022-07-06T05:57:35;18.10;94.40
3628;DHT22;1830;49.000;12.074;2022-07-06T06:00:03;18.30;94.60
3628;DHT22;1830;49.000;12.074;2022-07-06T06:02:37;18.30;94.20
3628;DHT22;1830;49.000;12.074;2022-07-06T06:05:05;18.40;94.10
3628;DHT22;1830;49.000;12.074;2022-07-06T06:07:33;18.30;94.00
3628;DHT22;1830;49.000;12.074;2022-07-06T06:12:29;18.20;94.10
3628;DHT22;1830;49.000;12.074;2022-07-06T06:14:56;18.20;94.50
3628;DHT22;1830;49.000;12.074;2022-07-06T06:17:23;18.10;94.40
3628;DHT22;1830;49.000;12.074;2022-07-06T06:19:50;18.10;94.50
3628;DHT22;1830;49.000;12.074;2022-07-06T06:22:17;18.10;94.70
3628;DHT22;1830;49.000;12.074;2022-07-06T06:24:44;18.20;94.60
3628;DHT22;1830;49.000;12.074;2022-07-06T06:27:12;18.30;94.40
3628;DHT22;1830;49.000;12.074;2022-07-06T06:29:39;18.40;94.20
3628;DHT22;1830;49.000;12.074;2022-07-06T06:32:07;18.50;94.30
3628;DHT22;1830;49.000;12.074;2022-07-06T06:34:34;18.50;94.10
3628;DHT22;1830;49.000;12.074;2022-07-06T06:37:01;18.50;94.00
3628;DHT22;1830;49.000;12.074;2022-07-06T06:39:27;18.60;94.00
3628;DHT22;1830;49.000;12.074;2022-07-06T06:41:54;18.60;94.10
3628;DHT22;1830;49.000;12.074;2022-07-06T06:44:22;18.80;94.20
3628;DHT22;1830;49.000;12.074;2022-07-06T06:46:49;18.90;94.00
3628;DHT22;1830;49.000;12.074;2022-07-06T06:49:17;19.00;94.10
3628;DHT22;1830;49.000;12.074;2022-07-06T06:51:44;19.10;93.80
3628;DHT22;1830;49.000;12.074;2022-07-06T06:54:11;19.10;93.90
3628;DHT22;1830;49.000;12.074;2022-07-06T06:56:38;19.10;93.60
3628;DHT22;1830;49.000;12.074;2022-07-06T06:59:05;19.10;93.50
3628;DHT22;1830;49.000;12.074;2022-07-06T07:01:33;19.10;93.70
3628;DHT22;1830;49.000;12.074;2022-07-06T07:04:00;19.00;93.80
3628;DHT22;1830;49.000;12.074;2022-07-06T07:06:27;19.10;94.00
3628;DHT22;1830;49.000;12.074;2022-07-06T07:08:54;19.10;94.50
3628;DHT22;1830;49.000;12.074;2022-07-06T07:11:23;19.20;94.40
3628;DHT22;1830;49.000;12.074;2022-07-06T07:13:50;19.20;93.90
3628;DHT22;1830;49.000;12.074;2022-07-06T07:16:17;19.30;94.40
3628;DHT22;1830;49.000;12.074;2022-07-06T07:18:45;19.30;93.90
3628;DHT22;1830;49.000;12.074;2022-07-06T07:21:12;19.40;94.10
3628;DHT22;1830;49.000;12.074;2022-07-06T07:23:39;19.40;94.00
3628;DHT22;1830;49.000;12.074;2022-07-06T07:26:06;19.40;93.90
3628;DHT22;1830;49.000;12.074;2022-07-06T07:28:33;19.50;94.00
3628;DHT22;1830;49.000;12.074;2022-07-06T07:31:00;19.50;93.60
3628;DHT22;1830;49.000;12.074;2022-07-06T07:33:26;19.60;93.90
3628;DHT22;1830;49.000;12.074;2022-07-06T07:35:55;19.60;93.90
3628;DHT22;1830;49.000;12.074;2022-07-06T07:38:22;19.70;93.70
3628;DHT22;1830;49.000;12.074;2022-07-06T07:40:54;19.70;93.70
3628;DHT22;1830;49.000;12.074;2022-07-06T07:43:21;19.80;93.50
3628;DHT22;1830;49.000;12.074;2022-07-06T07:45:48;19.90;93.40
3628;DHT22;1830;49.000;12.074;2022-07-06T07:48:15;19.90;93.60
3628;DHT22;1830;49.000;12.074;2022-07-06T07:50:42;20.00;93.20
3628;DHT22;1830;49.000;12.074;2022-07-06T07:53:10;20.00;93.10
3628;DHT22;1830;49.000;12.074;2022-07-06T07:55:37;20.20;93.20
3628;DHT22;1830;49.000;12.074;2022-07-06T07:58:04;20.20;93.00
3628;DHT22;1830;49.000;12.074;2022-07-06T08:00:31;20.30;92.40
3628;DHT22;1830;49.000;12.074;2022-07-06T08:02:59;20.40;92.00
3628;DHT22;1830;49.000;12.074;2022-07-06T08:05:26;20.40;91.90
3628;DHT22;1830;49.000;12.074;2022-07-06T08:08:03;20.50;91.80
3628;DHT22;1830;49.000;12.074;2022-07-06T08:10:31;20.50;91.60
3628;DHT22;1830;49.000;12.074;2022-07-06T08:12:58;20.60;91.50
3628;DHT22;1830;49.000;12.074;2022-07-06T08:15:25;20.70;91.50
3628;DHT22;1830;49.000;12.074;2022-07-06T08:17:52;20.70;91.80
3628;DHT22;1830;49.000;12.074;2022-07-06T08:20:19;20.70;91.20
3628;DHT22;1830;49.000;12.074;2022-07-06T08:22:46;20.80;91.40
3628;DHT22;1830;49.000;12.074;2022-07-06T08:25:13;20.80;91.40
3628;DHT22;1830;49.000;12.074;2022-07-06T08:27:41;20.90;91.20
3628;DHT22;1830;49.000;12.074;2022-07-06T08:30:09;21.00;90.40
3628;DHT22;1830;49.000;12.074;2022-07-06T08:32:37;21.10;89.00
3628;DHT22;1830;49.000;12.074;2022-07-06T08:35:05;21.20;89.30
3628;DHT22;1830;49.000;12.074;2022-07-06T08:37:32;21.30;87.50
3628;DHT22;1830;49.000;12.074;2022-07-06T08:39:59;21.30;84.70
3628;DHT22;1830;49.000;12.074;2022-07-06T08:42:29;21.30;85.10
3628;DHT22;1830;49.000;12.074;2022-07-06T08:45:00;21.40;85.90
3628;DHT22;1830;49.000;12.074;2022-07-06T08:47:28;21.40;87.50
3628;DHT22;1830;49.000;12.074;2022-07-06T08:49:55;21.30;86.80
3628;DHT22;1830;49.000;12.074;2022-07-06T08:52:23;21.30;88.00
3628;DHT22;1830;49.000;12.074;2022-07-06T08:54:50;21.40;87.50
3628;DHT22;1830;49.000;12.074;2022-07-06T08:57:17;21.40;86.30
3628;DHT22;1830;49.000;12.074;2022-07-06T08:59:47;21.60;86.60
3628;DHT22;1830;49.000;12.074;2022-07-06T09:02:16;21.60;84.90
3628;DHT22;1830;49.000;12.074;2022-07-06T09:04:43;21.60;85.40
3628;DHT22;1830;49.000;12.074;2022-07-06T09:07:10;21.60;86.60
3628;DHT22;1830;49.000;12.074;2022-07-06T09:09:40;21.60;85.70
3628;DHT22;1830;49.000;12.074;2022-07-06T09:12:11;21.80;87.30
3628;DHT22;1830;49.000;12.074;2022-07-06T09:14:39;21.90;86.40
3628;DHT22;1830;49.000;12.074;2022-07-06T09:17:06;21.90;85.20
3628;DHT22;1830;49.000;12.074;2022-07-06T09:19:35;21.80;84.90
3628;DHT22;1830;49.000;12.074;2022-07-06T09:22:02;21.90;85.30
3628;DHT22;1830;49.000;12.074;2022-07-06T09:24:30;22.00;84.40
3628;DHT22;1830;49.000;12.074;2022-07-06T09:26:58;22.10;84.20
3628;DHT22;1830;49.000;12.074;2022-07-06T09:29:27;22.40;83.10
3628;DHT22;1830;49.000;12.074;2022-07-06T09:31:56;22.40;82.20
3628;DHT22;1830;49.000;12.074;2022-07-06T09:34:23;22.50;82.10
3628;DHT22;1830;49.000;12.074;2022-07-06T09:36:51;22.70;82.30
3628;DHT22;1830;49.000;12.074;2022-07-06T09:39:21;22.60;81.60
3628;DHT22;1830;49.000;12.074;2022-07-06T09:41:49;22.70;80.50
3628;DHT22;1830;49.000;12.074;2022-07-06T09:44:24;22.90;80.70
3628;DHT22;1830;49.000;12.074;2022-07-06T09:46:51;22.90;80.30
3628;DHT22;1830;49.000;12.074;2022-07-06T09:49:19;22.90;79.90
3628;DHT22;1830;49.000;12.074;2022-07-06T09:51:47;22.70;79.40
3628;DHT22;1830;49.000;12.074;2022-07-06T09:54:16;22.70;78.70
3628;DHT22;1830;49.000;12.074;2022-07-06T09:56:44;22.80;79.50
3628;DHT22;1830;49.000;12.074;2022-07-06T09:59:15;23.00;80.00
3628;DHT22;1830;49.000;12.074;2022-07-06T10:01:43;23.30;81.20
3628;DHT22;1830;49.000;12.074;2022-07-06T10:04:12;23.20;79.20
3628;DHT22;1830;49.000;12.074;2022-07-06T10:06:39;23.20;77.70
3628;DHT22;1830;49.000;12.074;2022-07-06T10:09:07;23.00;77.40
3628;DHT22;1830;49.000;12.074;2022-07-06T10:11:38;23.10;78.00
3628;DHT22;1830;49.000;12.074;2022-07-06T10:14:06;23.20;76.50
3628;DHT22;1830;49.000;12.074;2022-07-06T10:16:35;23.40;75.50
3628;DHT22;1830;49.000;12.074;2022-07-06T10:19:05;23.60;75.30
3628;DHT22;1830;49.000;12.074;2022-07-06T10:21:33;23.60;74.40
3628;DHT22;1830;49.000;12.074;2022-07-06T10:24:03;23.50;73.90
3628;DHT22;1830;49.000;12.074;2022-07-06T10:26:30;23.40;72.90
3628;DHT22;1830;49.000;12.074;2022-07-06T10:28:59;23.20;72.60
3628;DHT22;1830;49.000;12.074;2022-07-06T10:31:27;23.20;73.40
3628;DHT22;1830;49.000;12.074;2022-07-06T10:33:55;23.20;74.00
3628;DHT22;1830;49.000;12.074;2022-07-06T10:36:22;23.40;73.80
3628;DHT22;1830;49.000;12.074;2022-07-06T10:38:51;23.50;71.70
3628;DHT22;1830;49.000;12.074;2022-07-06T10:41:18;23.80;71.60
3628;DHT22;1830;49.000;12.074;2022-07-06T10:43:55;23.80;71.10
3628;DHT22;1830;49.000;12.074;2022-07-06T10:46:28;23.50;71.60
3628;DHT22;1830;49.000;12.074;2022-07-06T10:49:15;23.40;71.70
3628;DHT22;1830;49.000;12.074;2022-07-06T10:51:42;23.50;71.20
3628;DHT22;1830;49.000;12.074;2022-07-06T10:54:09;23.60;70.20
3628;DHT22;1830;49.000;12.074;2022-07-06T10:56:38;23.70;70.20
3628;DHT22;1830;49.000;12.074;2022-07-06T10:59:09;24.00;72.20
3628;DHT22;1830;49.000;12.074;2022-07-06T11:01:38;24.10;71.10
3628;DHT22;1830;49.000;12.074;2022-07-06T11:04:07;24.20;71.30
3628;DHT22;1830;49.000;12.074;2022-07-06T11:06:36;24.20;70.30
3628;DHT22;1830;49.000;12.074;2022-07-06T11:09:04;24.30;69.60
3628;DHT22;1830;49.000;12.074;2022-07-06T11:11:39;24.40;69.80
3628;DHT22;1830;49.000;12.074;2022-07-06T11:14:09;24.50;69.90
3628;DHT22;1830;49.000;12.074;2022-07-06T11:16:39;24.40;70.50
3628;DHT22;1830;49.000;12.074;2022-07-06T11:19:08;24.10;69.90
3628;DHT22;1830;49.000;12.074;2022-07-06T11:21:37;24.00;70.20
3628;DHT22;1830;49.000;12.074;2022-07-06T11:24:06;23.80;70.00
3628;DHT22;1830;49.000;12.074;2022-07-06T11:26:33;24.10;69.90
3628;DHT22;1830;49.000;12.074;2022-07-06T11:29:03;24.40;70.30
3628;DHT22;1830;49.000;12.074;2022-07-06T11:31:30;24.60;69.00
3628;DHT22;1830;49.000;12.074;2022-07-06T11:34:00;24.70;66.60
3628;DHT22;1830;49.000;12.074;2022-07-06T11:36:27;24.90;67.00
3628;DHT22;1830;49.000;12.074;2022-07-06T11:38:57;24.60;66.90
3628;DHT22;1830;49.000;12.074;2022-07-06T11:41:30;24.30;68.00
3628;DHT22;1830;49.000;12.074;2022-07-06T11:43:57;24.00;68.30
3628;DHT22;1830;49.000;12.074;2022-07-06T11:46:25;24.20;68.40
3628;DHT22;1830;49.000;12.074;2022-07-06T11:48:54;24.10;67.70
3628;DHT22;1830;49.000;12.074;2022-07-06T11:51:23;24.30;67.00
3628;DHT22;1830;49.000;12.074;2022-07-06T11:53:56;24.50;67.40
3628;DHT22;1830;49.000;12.074;2022-07-06T11:56:24;24.70;66.30
3628;DHT22;1830;49.000;12.074;2022-07-06T11:58:53;24.70;65.60
3628;DHT22;1830;49.000;12.074;2022-07-06T12:01:21;25.10;66.70
3628;DHT22;1830;49.000;12.074;2022-07-06T12:03:50;24.80;66.70
3628;DHT22;1830;49.000;12.074;2022-07-06T12:06:18;25.10;67.20
3628;DHT22;1830;49.000;12.074;2022-07-06T12:08:50;25.20;66.10
3628;DHT22;1830;49.000;12.074;2022-07-06T12:11:21;25.40;66.60
3628;DHT22;1830;49.000;12.074;2022-07-06T12:13:50;25.60;65.60
3628;DHT22;1830;49.000;12.074;2022-07-06T12:16:18;25.80;65.20
3628;DHT22;1830;49.000;12.074;2022-07-06T12:18:47;25.80;64.40
3628;DHT22;1830;49.000;12.074;2022-07-06T12:21:15;26.10;65.30
3628;DHT22;1830;49.000;12.074;2022-07-06T12:23:45;26.00;64.60
3628;DHT22;1830;49.000;12.074;2022-07-06T12:26:15;25.80;63.50
3628;DHT22;1830;49.000;12.074;2022-07-06T12:28:43;26.00;64.30
3628;DHT22;1830;49.000;12.074;2022-07-06T12:31:10;26.20;63.70
3628;DHT22;1830;49.000;12.074;2022-07-06T12:33:37;26.10;62.80
3628;DHT22;1830;49.000;12.074;2022-07-06T12:36:12;25.90;64.00
3628;DHT22;1830;49.000;12.074;2022-07-06T12:38:44;26.00;65.30
3628;DHT22;1830;49.000;12.074;2022-07-06T12:41:31;26.10;64.50
3628;DHT22;1830;49.000;12.074;2022-07-06T12:44:03;26.00;63.30
3628;DHT22;1830;49.000;12.074;2022-07-06T12:46:32;26.20;63.30
3628;DHT22;1830;49.000;12.074;2022-07-06T12:49:01;26.30;62.30
3628;DHT22;1830;49.000;12.074;2022-07-06T12:51:28;25.90;62.20
3628;DHT22;1830;49.000;12.074;2022-07-06T12:54:13;25.80;63.20
3628;DHT22;1830;49.000;12.074;2022-07-06T12:57:07;25.50;62.80
3628;DHT22;1830;49.000;12.074;2022-07-06T12:59:36;25.40;63.30
3628;DHT22;1830;49.000;12.074;2022-07-06T13:02:04;25.80;64.00
3628;DHT22;1830;49.000;12.074;2022-07-06T13:04:32;25.60;63.70
3628;DHT22;1830;49.000;12.074;2022-07-06T13:07:00;25.70;63.20
3628;DHT22;1830;49.000;12.074;2022-07-06T13:09:27;26.00;63.30
3628;DHT22;1830;49.000;12.074;2022-07-06T13:11:56;26.00;63.80
3628;DHT22;1830;49.000;12.074;2022-07-06T13:14:23;26.30;63.90
3628;DHT22;1830;49.000;12.074;2022-07-06T13:16:50;26.60;63.90
3628;DHT22;1830;49.000;12.074;2022-07-06T13:19:17;26.30;62.80
3628;DHT22;1830;49.000;12.074;2022-07-06T13:21:44;26.60;63.80
3628;DHT22;1830;49.000;12.074;2022-07-06T13:24:11;26.90;63.20
3628;DHT22;1830;49.000;12.074;2022-07-06T13:26:38;27.30;62.70
3628;DHT22;1830;49.000;12.074;2022-07-06T13:29:07;27.20;61.70
3628;DHT22;1830;49.000;12.074;2022-07-06T13:31:36;27.30;61.20
3628;DHT22;1830;49.000;12.074;2022-07-06T13:34:04;27.00;60.00
3628;DHT22;1830;49.000;12.074;2022-07-06T13:36:30;26.70;61.60
3628;DHT22;1830;49.000;12.074;2022-07-06T13:38:58;26.70;61.50
3628;DHT22;1830;49.000;12.074;2022-07-06T13:41:28;26.80;60.90
3628;DHT22;1830;49.000;12.074;2022-07-06T13:43:55;27.20;61.10
3628;DHT22;1830;49.000;12.074;2022-07-06T13:46:24;27.00;59.90
3628;DHT22;1830;49.000;12.074;2022-07-06T13:48:52;26.70;61.00
3628;DHT22;1830;49.000;12.074;2022-07-06T13:51:19;26.30;60.80
3628;DHT22;1830;49.000;12.074;2022-07-06T13:53:46;25.90;61.30
3628;DHT22;1830;49.000;12.074;2022-07-06T13:56:13;25.70;62.40
3628;DHT22;1830;49.000;12.074;2022-07-06T13:58:39;25.80;63.00
3628;DHT22;1830;49.000;12.074;2022-07-06T14:01:06;26.20;62.20
3628;DHT22;1830;49.000;12.074;2022-07-06T14:03:35;26.30;60.80
3628;DHT22;1830;49.000;12.074;2022-07-06T14:06:04;26.60;60.50
3628;DHT22;1830;49.000;12.074;2022-07-06T14:08:32;26.20;60.90
3628;DHT22;1830;49.000;12.074;2022-07-06T14:10:59;25.90;61.60
3628;DHT22;1830;49.000;12.074;2022-07-06T14:13:27;25.60;62.00
3628;DHT22;1830;49.000;12.074;2022-07-06T14:15:54;25.70;62.40
3628;DHT22;1830;49.000;12.074;2022-07-06T14:18:21;26.10;62.60
3628;DHT22;1830;49.000;12.074;2022-07-06T14:20:50;26.50;61.70
3628;DHT22;1830;49.000;12.074;2022-07-06T14:23:17;26.70;61.00
3628;DHT22;1830;49.000;12.074;2022-07-06T14:25:45;26.80;60.30
3628;DHT22;1830;49.000;12.074;2022-07-06T14:28:12;26.90;60.30
3628;DHT22;1830;49.000;12.074;2022-07-06T14:30:40;27.00;60.80
3628;DHT22;1830;49.000;12.074;2022-07-06T14:33:08;27.00;60.30
3628;DHT22;1830;49.000;12.074;2022-07-06T14:35:36;27.00;60.80
3628;DHT22;1830;49.000;12.074;2022-07-06T14:38:04;26.60;59.70
3628;DHT22;1830;49.000;12.074;2022-07-06T14:40:31;26.20;60.80
3628;DHT22;1830;49.000;12.074;2022-07-06T14:42:59;26.00;61.30
3628;DHT22;1830;49.000;12.074;2022-07-06T14:45:26;26.40;62.20
3628;DHT22;1830;49.000;12.074;2022-07-06T14:47:53;26.40;61.40
3628;DHT22;1830;49.000;12.074;2022-07-06T14:50:20;26.10;61.90
3628;DHT22;1830;49.000;12.074;2022-07-06T14:52:49;25.90;61.10
3628;DHT22;1830;49.000;12.074;2022-07-06T14:55:17;26.10;61.40
3628;DHT22;1830;49.000;12.074;2022-07-06T14:57:44;26.30;62.80
3628;DHT22;1830;49.000;12.074;2022-07-06T15:00:13;26.50;61.70
3628;DHT22;1830;49.000;12.074;2022-07-06T15:02:40;26.50;61.90
3628;DHT22;1830;49.000;12.074;2022-07-06T15:05:08;26.70;62.60
3628;DHT22;1830;49.000;12.074;2022-07-06T15:07:35;26.70;61.30
3628;DHT22;1830;49.000;12.074;2022-07-06T15:10:02;26.30;60.90
3628;DHT22;1830;49.000;12.074;2022-07-06T15:12:31;26.20;61.20
3628;DHT22;1830;49.000;12.074;2022-07-06T15:14:58;26.20;62.70
3628;DHT22;1830;49.000;12.074;2022-07-06T15:17:24;26.00;62.20
3628;DHT22;1830;49.000;12.074;2022-07-06T15:19:53;26.30;62.80
3628;DHT22;1830;49.000;12.074;2022-07-06T15:22:19;26.40;62.30
3628;DHT22;1830;49.000;12.074;2022-07-06T15:24:47;26.40;61.10
3628;DHT22;1830;49.000;12.074;2022-07-06T15:27:14;26.20;61.40
3628;DHT22;1830;49.000;12.074;2022-07-06T15:29:42;26.30;61.40
3628;DHT22;1830;49.000;12.074;2022-07-06T15:32:09;26.20;62.30
3628;DHT22;1830;49.000;12.074;2022-07-06T15:34:36;26.10;61.60
3628;DHT22;1830;49.000;12.074;2022-07-06T15:37:03;26.10;61.10
3628;DHT22;1830;49.000;12.074;2022-07-06T15:39:30;26.10;60.60
3628;DHT22;1830;49.000;12.074;2022-07-06T15:41:57;26.00;61.00
3628;DHT22;1830;49.000;12.074;2022-07-06T15:44:24;25.90;61.40
3628;DHT22;1830;49.000;12.074;2022-07-06T15:46:52;25.90;61.50
3628;DHT22;1830;49.000;12.074;2022-07-06T15:49:19;26.00;62.10
3628;DHT22;1830;49.000;12.074;2022-07-06T15:51:46;26.00;61.80